KFRR/FRR METAR and TAF weather

Enter ICAO airport designator
Station Type Date Time Source
KFRR METAR 2020/01/24 03:35 UTC NOAA

KFRR 240335Z AUTO 33003KT 10SM CLR 00/M06 A3029 RMK AO1


Station Type Date Time Source
KFRR Decoded METAR 2020/01/24 03:35 UTC NOAA

Station name not available
Jan 23, 2020 - 10:35 PM EST / 2020.01.24 0335 UTC
Wind: from the NNW (330 degrees) at 3 MPH (3 KT):0
Visibility: 10 mile(s):0
Sky conditions: clear
Temperature: 32 F (0 C)
Dew Point: 21 F (-6 C)
Relative Humidity: 63%
Pressure (altimeter): 30.29 in. Hg (1025 hPa)
ob: KFRR 240335Z AUTO 33003KT 10SM CLR 00/M06 A3029 RMK AO1
cycle: 3

Station Type Date Time Source
KFRR TAF UTC NOAA

Error!

Example: see airport list